createdAt,value
2023-05-06T00:00:43.482Z,6.28
2023-05-06T00:03:14.821Z,3.63
2023-05-06T00:05:42.523Z,13.55
2023-05-06T00:08:09.796Z,6.30
2023-05-06T00:10:36.759Z,6.03
2023-05-06T00:13:04.801Z,9.20
2023-05-06T00:15:32.301Z,4.72
2023-05-06T00:18:01.216Z,7.13
2023-05-06T00:20:28.841Z,5.55
2023-05-06T00:22:56.140Z,5.68
2023-05-06T00:25:23.147Z,5.00
2023-05-06T00:27:50.474Z,4.18
2023-05-06T00:30:17.492Z,6.10
2023-05-06T00:32:44.810Z,2.80
2023-05-06T00:35:12.533Z,8.73
2023-05-06T00:37:39.870Z,5.22
2023-05-06T00:40:08.103Z,4.40
2023-05-06T00:42:35.506Z,9.10
2023-05-06T00:45:02.548Z,3.85
2023-05-06T00:47:30.374Z,10.40
2023-05-06T00:49:57.499Z,7.20
2023-05-06T00:52:24.825Z,5.68
2023-05-06T00:54:51.891Z,4.43
2023-05-06T00:57:19.290Z,6.40
2023-05-06T00:59:46.328Z,7.90
2023-05-06T01:02:13.678Z,8.27
2023-05-06T01:04:41.539Z,6.13
2023-05-06T01:07:30.923Z,9.00
2023-05-06T01:10:03.142Z,6.47
2023-05-06T01:12:43.017Z,8.90
2023-05-06T01:15:23.538Z,6.40
2023-05-06T01:17:53.437Z,6.25
2023-05-06T01:20:22.107Z,8.20
2023-05-06T01:22:49.952Z,10.38
2023-05-06T01:25:23.774Z,7.65
2023-05-06T01:27:51.065Z,8.25
2023-05-06T01:30:19.925Z,4.13
2023-05-06T01:33:00.673Z,4.90
2023-05-06T01:35:52.127Z,3.58
2023-05-06T01:38:32.667Z,10.57
2023-05-06T01:41:01.701Z,8.90
2023-05-06T01:43:33.346Z,6.35
2023-05-06T01:46:02.642Z,4.90
2023-05-06T01:48:33.647Z,4.00
2023-05-06T01:51:01.421Z,6.18
2023-05-06T01:53:28.702Z,6.68
2023-05-06T01:55:55.738Z,6.88
2023-05-06T01:58:23.071Z,5.78
2023-05-06T02:00:50.090Z,6.68
2023-05-06T02:03:17.460Z,4.40
2023-05-06T02:05:44.689Z,9.98
2023-05-06T02:08:12.007Z,6.18
2023-05-06T02:10:39.314Z,3.90
2023-05-06T02:13:10.807Z,6.40
2023-05-06T02:15:38.004Z,6.20
2023-05-06T02:18:07.608Z,5.07
2023-05-06T02:20:35.372Z,14.73
2023-05-06T02:23:02.844Z,5.18
2023-05-06T02:25:30.061Z,4.97
2023-05-06T02:27:57.352Z,5.05
2023-05-06T02:30:24.333Z,10.45
2023-05-06T02:32:51.764Z,4.97
2023-05-06T02:35:18.855Z,5.75
2023-05-06T02:37:46.181Z,5.95
2023-05-06T02:40:13.315Z,5.15
2023-05-06T02:42:41.206Z,4.68
2023-05-06T02:45:08.954Z,5.07
2023-05-06T02:47:36.535Z,3.17
2023-05-06T02:50:04.413Z,3.90
2023-05-06T02:52:33.384Z,7.55
2023-05-06T02:55:01.204Z,4.82
2023-05-06T02:57:28.674Z,6.30
2023-05-06T02:59:55.983Z,10.95
2023-05-06T03:02:23.507Z,12.50
2023-05-06T03:04:51.018Z,5.63
2023-05-06T03:07:18.924Z,4.43
2023-05-06T03:09:46.179Z,6.22
2023-05-06T03:12:13.456Z,2.85
2023-05-06T03:14:40.435Z,4.65
2023-05-06T03:17:07.823Z,3.63
2023-05-06T03:19:36.825Z,5.65
2023-05-06T03:22:06.388Z,2.97
2023-05-06T03:24:35.975Z,3.95
2023-05-06T03:27:05.936Z,6.05
2023-05-06T03:29:33.371Z,5.47
2023-05-06T03:32:05.187Z,4.63
2023-05-06T03:34:37.876Z,3.85
2023-05-06T03:37:06.931Z,3.88
2023-05-06T03:39:34.994Z,4.55
2023-05-06T03:42:03.062Z,4.68
2023-05-06T03:44:30.321Z,9.40
2023-05-06T03:46:58.335Z,5.70
2023-05-06T03:49:26.136Z,4.78
2023-05-06T03:51:53.648Z,3.75
2023-05-06T03:54:23.053Z,4.10
2023-05-06T03:56:50.596Z,5.35
2023-05-06T03:59:17.842Z,4.90
2023-05-06T04:01:46.186Z,6.75
2023-05-06T04:04:14.606Z,7.28
2023-05-06T04:06:42.011Z,4.00
2023-05-06T04:09:09.601Z,3.40
2023-05-06T04:11:39.505Z,4.38
2023-05-06T04:14:08.434Z,3.85
2023-05-06T04:16:36.315Z,3.30
2023-05-06T04:19:05.737Z,9.15
2023-05-06T04:21:35.175Z,3.28
2023-05-06T04:24:07.049Z,3.58
2023-05-06T04:26:38.263Z,6.75
2023-05-06T04:29:05.723Z,6.18
2023-05-06T04:31:37.118Z,5.40
2023-05-06T04:34:07.838Z,4.95
2023-05-06T04:36:36.118Z,7.65
2023-05-06T04:39:16.294Z,8.77
2023-05-06T04:41:44.562Z,2.10
2023-05-06T04:44:15.213Z,4.43
2023-05-06T04:46:45.690Z,4.88
2023-05-06T04:49:13.087Z,8.57
2023-05-06T04:51:42.037Z,5.03
2023-05-06T04:54:09.721Z,3.35
2023-05-06T04:56:38.582Z,9.85
2023-05-06T04:59:07.550Z,33.92
2023-05-06T05:01:36.707Z,6.35
2023-05-06T05:04:03.975Z,5.55
2023-05-06T05:06:32.023Z,5.35
2023-05-06T05:08:59.961Z,5.75
2023-05-06T05:11:28.465Z,5.18
2023-05-06T05:13:59.475Z,6.63
2023-05-06T05:16:28.507Z,6.07
2023-05-06T05:18:56.488Z,3.75
2023-05-06T05:21:27.911Z,4.95
2023-05-06T05:23:56.356Z,5.22
2023-05-06T05:26:23.780Z,4.88
2023-05-06T05:28:53.385Z,4.00
2023-05-06T05:31:21.127Z,3.53
2023-05-06T05:33:48.578Z,3.85
2023-05-06T05:36:19.405Z,6.07
2023-05-06T05:38:48.177Z,3.38
2023-05-06T05:41:17.573Z,4.18
2023-05-06T05:43:45.596Z,8.25
2023-05-06T05:46:13.092Z,6.07
2023-05-06T05:48:41.971Z,5.57
2023-05-06T05:51:11.158Z,3.47
2023-05-06T05:53:38.282Z,6.20
2023-05-06T05:56:07.784Z,5.88
2023-05-06T05:58:35.651Z,6.22
2023-05-06T06:01:04.324Z,6.43
2023-05-06T06:03:32.536Z,4.07
2023-05-06T06:06:01.790Z,6.43
2023-05-06T06:08:32.001Z,6.60
2023-05-06T06:10:59.440Z,6.88
2023-05-06T06:13:32.777Z,9.32
2023-05-06T06:16:00.963Z,5.80
2023-05-06T06:18:28.020Z,6.95
2023-05-06T06:20:55.424Z,4.50
2023-05-06T06:23:22.742Z,13.40
2023-05-06T06:25:50.329Z,4.80
2023-05-06T06:28:17.751Z,4.78
2023-05-06T06:30:45.926Z,3.53
2023-05-06T06:33:12.926Z,3.58
2023-05-06T06:35:41.079Z,4.05
2023-05-06T06:38:08.092Z,4.50
2023-05-06T06:40:35.546Z,5.35
2023-05-06T06:43:03.052Z,2.83
2023-05-06T06:45:48.311Z,4.30
2023-05-06T06:48:15.611Z,5.28
2023-05-06T06:50:43.218Z,8.43
2023-05-06T06:53:10.890Z,5.65
2023-05-06T06:55:39.900Z,9.18
2023-05-06T06:58:06.934Z,9.57
2023-05-06T07:00:34.273Z,3.33
2023-05-06T07:03:01.333Z,8.65
2023-05-06T07:05:30.984Z,6.85
2023-05-06T07:07:58.086Z,7.45
2023-05-06T07:10:25.845Z,5.32
2023-05-06T07:12:52.977Z,6.00
2023-05-06T07:15:20.494Z,6.30
2023-05-06T07:17:47.725Z,11.98
2023-05-06T07:20:16.203Z,4.82
2023-05-06T07:22:45.725Z,9.73
2023-05-06T07:25:16.248Z,4.13
2023-05-06T07:27:49.190Z,4.82
2023-05-06T07:30:16.699Z,5.53
2023-05-06T07:32:43.783Z,4.82
2023-05-06T07:35:11.225Z,22.58
2023-05-06T07:37:38.522Z,30.27
2023-05-06T07:40:06.812Z,20.08
2023-05-06T07:42:33.856Z,9.10
2023-05-06T07:45:01.196Z,8.55
2023-05-06T07:47:30.175Z,9.20
2023-05-06T07:49:58.278Z,8.43
2023-05-06T07:52:25.549Z,7.35
2023-05-06T07:54:53.336Z,6.80
2023-05-06T07:57:22.267Z,9.25
2023-05-06T07:59:51.244Z,12.27
2023-05-06T08:02:19.072Z,11.25
2023-05-06T08:04:46.972Z,4.63
2023-05-06T08:07:15.808Z,4.78
2023-05-06T08:09:46.753Z,4.88
2023-05-06T08:12:15.855Z,5.97
2023-05-06T08:14:46.727Z,5.10
2023-05-06T08:17:14.355Z,6.05
2023-05-06T08:19:41.789Z,3.22
2023-05-06T08:22:08.843Z,16.13
2023-05-06T08:24:36.197Z,7.80
2023-05-06T08:27:03.363Z,8.02
2023-05-06T08:29:30.964Z,4.28
2023-05-06T08:31:59.298Z,6.28
2023-05-06T08:34:26.885Z,13.82
2023-05-06T08:36:53.945Z,6.22
2023-05-06T08:39:21.281Z,18.00
2023-05-06T08:41:52.252Z,9.27
2023-05-06T08:44:23.217Z,6.05
2023-05-06T08:46:50.765Z,5.18
2023-05-06T08:49:18.508Z,7.22
2023-05-06T08:51:46.219Z,3.22
2023-05-06T08:54:13.629Z,4.28
2023-05-06T08:56:46.394Z,6.40
2023-05-06T08:59:13.906Z,2.40
2023-05-06T09:01:41.454Z,4.43
2023-05-06T09:04:13.249Z,7.85
2023-05-06T09:06:44.851Z,3.65
2023-05-06T09:09:13.057Z,2.72
2023-05-06T09:11:40.728Z,3.88
2023-05-06T09:14:13.157Z,2.33
2023-05-06T09:16:45.354Z,4.68
2023-05-06T09:19:13.697Z,8.20
2023-05-06T09:21:43.587Z,7.40
2023-05-06T09:24:12.192Z,5.75
2023-05-06T09:26:42.310Z,5.82
2023-05-06T09:29:12.375Z,4.55
2023-05-06T09:31:45.354Z,11.98
2023-05-06T09:34:13.411Z,7.63
2023-05-06T09:36:44.706Z,4.25
2023-05-06T09:39:12.130Z,3.72
2023-05-06T09:41:43.112Z,3.97
2023-05-06T09:44:11.553Z,4.85
2023-05-06T09:46:39.263Z,11.55
2023-05-06T09:49:06.539Z,9.18
2023-05-06T09:51:34.116Z,7.30
2023-05-06T09:54:01.897Z,4.30
2023-05-06T09:56:31.235Z,8.25
2023-05-06T09:59:01.252Z,6.18
2023-05-06T10:01:36.664Z,5.07
2023-05-06T10:04:08.124Z,5.20
2023-05-06T10:06:39.763Z,6.07
2023-05-06T10:09:09.186Z,5.65
2023-05-06T10:11:37.235Z,5.57
2023-05-06T10:14:05.124Z,9.50
2023-05-06T10:16:37.891Z,4.95
2023-05-06T10:19:07.404Z,7.07
2023-05-06T10:21:38.946Z,7.35
2023-05-06T10:24:09.414Z,6.97
2023-05-06T10:26:38.007Z,6.60
2023-05-06T10:29:09.898Z,20.73
2023-05-06T10:31:46.946Z,3.40
2023-05-06T10:34:16.422Z,4.13
2023-05-06T10:36:46.143Z,5.57
2023-05-06T10:39:14.310Z,3.15
2023-05-06T10:41:41.878Z,6.40
2023-05-06T10:44:10.156Z,4.53
2023-05-06T10:46:56.979Z,5.57
2023-05-06T10:49:24.012Z,4.35
2023-05-06T10:52:14.382Z,4.00
2023-05-06T10:54:51.591Z,5.00
2023-05-06T10:57:21.866Z,6.78
2023-05-06T10:59:49.418Z,3.28
2023-05-06T11:02:20.263Z,5.03
2023-05-06T11:05:01.632Z,9.20
2023-05-06T11:07:29.228Z,5.60
2023-05-06T11:10:01.456Z,5.32
2023-05-06T11:12:52.522Z,4.38
2023-05-06T11:15:24.367Z,10.32
2023-05-06T11:17:53.891Z,4.18
2023-05-06T11:20:25.687Z,3.28
2023-05-06T11:22:53.858Z,3.90
2023-05-06T11:25:41.235Z,4.38
2023-05-06T11:28:13.390Z,4.80
2023-05-06T11:30:53.634Z,4.20
2023-05-06T11:33:23.840Z,12.82
2023-05-06T11:35:50.848Z,8.10
2023-05-06T11:38:19.785Z,9.27
2023-05-06T11:40:48.737Z,12.55
2023-05-06T11:43:16.795Z,13.70
2023-05-06T11:45:50.803Z,12.00
2023-05-06T11:48:18.774Z,17.38
2023-05-06T11:50:49.388Z,14.88
2023-05-06T11:53:19.186Z,19.67
2023-05-06T11:55:47.239Z,31.08
2023-05-06T11:58:26.692Z,16.15
2023-05-06T12:01:01.639Z,11.38
2023-05-06T12:03:31.428Z,12.93
2023-05-06T12:05:59.341Z,7.28
2023-05-06T12:08:33.110Z,10.10
2023-05-06T12:11:06.540Z,17.98
2023-05-06T12:13:36.955Z,14.73
2023-05-06T12:16:05.899Z,8.57
2023-05-06T12:18:33.873Z,7.38
2023-05-06T12:21:04.290Z,9.10
2023-05-06T12:23:31.764Z,6.88
2023-05-06T12:26:04.310Z,7.30
2023-05-06T12:28:33.664Z,8.68
2023-05-06T12:31:17.442Z,9.57
2023-05-06T12:33:46.317Z,7.25
2023-05-06T12:36:13.498Z,10.43
2023-05-06T12:38:53.685Z,9.32
2023-05-06T12:41:21.409Z,7.45
2023-05-06T12:43:48.844Z,8.10
2023-05-06T12:46:17.371Z,10.15
2023-05-06T12:49:01.134Z,11.45
2023-05-06T12:51:30.646Z,6.35
2023-05-06T12:53:58.283Z,11.38
2023-05-06T12:56:25.326Z,5.82
2023-05-06T12:59:02.392Z,5.40
2023-05-06T13:01:29.637Z,8.68
2023-05-06T13:03:59.758Z,5.50
2023-05-06T13:06:26.759Z,9.85
2023-05-06T13:08:54.103Z,6.53
2023-05-06T13:11:22.258Z,10.70
2023-05-06T13:13:49.658Z,10.55
2023-05-06T13:16:19.381Z,5.90
2023-05-06T13:18:46.700Z,8.70
2023-05-06T13:21:14.114Z,9.95
2023-05-06T13:23:47.088Z,6.50
2023-05-06T13:26:14.956Z,8.90
2023-05-06T13:28:42.491Z,5.15
2023-05-06T13:31:10.999Z,4.57
2023-05-06T13:33:38.551Z,5.20
2023-05-06T13:36:06.354Z,9.73
2023-05-06T13:38:33.808Z,6.72
2023-05-06T13:41:00.932Z,4.57
2023-05-06T13:43:28.745Z,3.78
2023-05-06T13:45:55.865Z,5.75
2023-05-06T13:48:23.244Z,5.50
2023-05-06T13:50:50.282Z,11.63
2023-05-06T13:53:17.841Z,4.65
2023-05-06T13:55:45.850Z,6.03
2023-05-06T13:58:13.170Z,7.43
2023-05-06T14:00:40.244Z,6.95
2023-05-06T14:03:08.949Z,7.50
2023-05-06T14:05:36.196Z,7.82
2023-05-06T14:08:06.421Z,4.63
2023-05-06T14:10:33.409Z,4.47
2023-05-06T14:13:01.149Z,7.82
2023-05-06T14:15:28.125Z,7.45
2023-05-06T14:17:55.500Z,7.05
2023-05-06T14:20:22.666Z,6.07
2023-05-06T14:22:50.009Z,5.22
2023-05-06T14:25:17.482Z,9.55
2023-05-06T14:27:45.608Z,5.80
2023-05-06T14:30:13.149Z,6.88
2023-05-06T14:32:41.003Z,7.75
2023-05-06T14:35:09.166Z,4.88
2023-05-06T14:37:39.174Z,6.63
2023-05-06T14:40:07.055Z,12.93
2023-05-06T14:42:35.795Z,17.35
2023-05-06T14:45:02.988Z,14.77
2023-05-06T14:47:30.411Z,39.63
2023-05-06T14:49:58.096Z,46.50
2023-05-06T14:52:25.806Z,32.20
2023-05-06T14:54:53.165Z,8.43
2023-05-06T14:57:20.616Z,5.43
2023-05-06T14:59:47.617Z,4.68
2023-05-06T15:02:14.995Z,6.82
2023-05-06T15:04:42.737Z,4.65
2023-05-06T15:07:10.823Z,6.93
2023-05-06T15:09:40.121Z,4.18
2023-05-06T15:12:07.690Z,5.90
2023-05-06T15:14:34.714Z,6.63
2023-05-06T15:17:02.123Z,7.68
2023-05-06T15:19:32.472Z,5.95
2023-05-06T15:22:00.682Z,8.30
2023-05-06T15:24:27.886Z,9.27
2023-05-06T15:26:55.320Z,20.48
2023-05-06T15:29:22.419Z,17.80
2023-05-06T15:31:49.662Z,28.58
2023-05-06T15:34:16.840Z,16.63
2023-05-06T15:36:44.394Z,9.95
2023-05-06T15:39:12.645Z,11.43
2023-05-06T15:41:40.004Z,24.23
2023-05-06T15:44:07.197Z,22.80
2023-05-06T15:46:34.596Z,17.23
2023-05-06T15:49:26.155Z,12.55
2023-05-06T15:51:49.575Z,24.92
2023-05-06T15:54:18.391Z,7.28
2023-05-06T15:56:46.614Z,9.18
2023-05-06T15:59:13.756Z,12.50
2023-05-06T16:02:24.658Z,7.22
2023-05-06T16:04:29.922Z,7.25
2023-05-06T16:06:57.782Z,10.40
2023-05-06T16:09:25.171Z,11.82
2023-05-06T16:11:54.631Z,5.90
2023-05-06T16:14:21.944Z,3.95
2023-05-06T16:16:49.238Z,7.40
2023-05-06T16:19:16.462Z,33.28
2023-05-06T16:21:46.130Z,8.63
2023-05-06T16:24:13.459Z,6.85
2023-05-06T16:26:41.768Z,10.52
2023-05-06T16:29:08.802Z,6.70
2023-05-06T16:31:37.501Z,5.15
2023-05-06T16:34:04.595Z,12.70
2023-05-06T16:36:31.990Z,7.72
2023-05-06T16:38:58.938Z,8.38
2023-05-06T16:41:26.550Z,7.97
2023-05-06T16:43:54.011Z,9.60
2023-05-06T16:46:23.955Z,67.45
2023-05-06T16:48:52.598Z,7.53
2023-05-06T16:51:20.143Z,8.57
2023-05-06T16:53:51.689Z,17.20
2023-05-06T16:56:19.089Z,9.13
2023-05-06T16:58:46.104Z,5.22
2023-05-06T17:01:13.430Z,31.85
2023-05-06T17:03:40.841Z,17.15
2023-05-06T17:06:08.291Z,23.48
2023-05-06T17:08:36.873Z,15.02
2023-05-06T17:11:07.848Z,10.85
2023-05-06T17:13:35.477Z,20.02
2023-05-06T17:16:02.890Z,4.85
2023-05-06T17:18:29.901Z,7.63
2023-05-06T17:20:58.146Z,33.50
2023-05-06T17:23:25.272Z,39.95
2023-05-06T17:25:52.542Z,30.60
2023-05-06T17:28:19.726Z,11.75
2023-05-06T17:30:50.528Z,38.08
2023-05-06T17:33:20.720Z,8.07
2023-05-06T17:35:48.106Z,13.80
2023-05-06T17:38:18.576Z,24.98
2023-05-06T17:40:47.407Z,58.78
2023-05-06T17:43:14.575Z,25.05
2023-05-06T17:45:42.305Z,51.83
2023-05-06T17:48:09.975Z,30.50
2023-05-06T17:50:37.526Z,21.35
2023-05-06T17:53:04.599Z,48.85
2023-05-06T17:55:34.876Z,99.03
2023-05-06T17:58:02.151Z,161.10
2023-05-06T18:00:29.758Z,93.15
2023-05-06T18:02:57.919Z,148.15
2023-05-06T18:05:26.327Z,200.38
2023-05-06T18:07:53.542Z,85.32
2023-05-06T18:10:21.056Z,105.53
2023-05-06T18:12:48.283Z,85.80
2023-05-06T18:15:15.660Z,145.80
2023-05-06T18:17:42.794Z,70.47
2023-05-06T18:20:10.780Z,37.95
2023-05-06T18:22:46.375Z,23.63
2023-05-06T18:25:14.050Z,56.15
2023-05-06T18:27:41.039Z,62.25
2023-05-06T18:30:08.736Z,48.78
2023-05-06T18:32:36.050Z,50.45
2023-05-06T18:35:03.738Z,71.10
2023-05-06T18:37:31.034Z,44.80
2023-05-06T18:39:58.612Z,28.20
2023-05-06T18:42:27.525Z,15.80
2023-05-06T18:44:56.499Z,12.52
2023-05-06T18:47:25.696Z,46.78
2023-05-06T18:49:53.516Z,94.13
2023-05-06T18:52:20.728Z,44.30
2023-05-06T18:54:48.111Z,30.50
2023-05-06T18:57:18.810Z,42.00
2023-05-06T18:59:46.472Z,76.72
2023-05-06T19:02:15.919Z,94.20
2023-05-06T19:04:43.706Z,96.35
2023-05-06T19:07:16.460Z,75.93
2023-05-06T19:09:45.474Z,98.88
2023-05-06T19:12:12.583Z,42.65
2023-05-06T19:14:41.190Z,59.85
2023-05-06T19:17:08.750Z,71.25
2023-05-06T19:19:36.553Z,101.75
2023-05-06T19:22:04.173Z,63.15
2023-05-06T19:24:31.777Z,67.50
2023-05-06T19:27:01.988Z,76.18
2023-05-06T19:29:29.572Z,84.63
2023-05-06T19:31:59.353Z,81.53
2023-05-06T19:34:27.102Z,64.78
2023-05-06T19:36:54.405Z,62.15
2023-05-06T19:39:22.029Z,40.88
2023-05-06T19:41:49.347Z,32.95
2023-05-06T19:44:16.751Z,26.42
2023-05-06T19:46:43.874Z,27.20
2023-05-06T19:49:11.253Z,45.88
2023-05-06T19:51:40.551Z,27.38
2023-05-06T19:54:08.265Z,24.67
2023-05-06T19:56:35.516Z,38.33
2023-05-06T19:59:02.790Z,45.13
2023-05-06T20:01:30.255Z,60.63
2023-05-06T20:03:59.891Z,82.35
2023-05-06T20:06:29.456Z,75.18
2023-05-06T20:08:57.061Z,104.50
2023-05-06T20:11:25.645Z,110.85
2023-05-06T20:13:53.100Z,118.80
2023-05-06T20:16:20.361Z,260.17
2023-05-06T20:18:47.888Z,198.55
2023-05-06T20:21:20.662Z,131.75
2023-05-06T20:23:48.192Z,122.55
2023-05-06T20:26:15.432Z,385.42
2023-05-06T20:28:42.868Z,219.73
2023-05-06T20:31:12.514Z,217.70
2023-05-06T20:33:40.405Z,241.52
2023-05-06T20:36:07.664Z,194.63
2023-05-06T20:38:35.006Z,219.50
2023-05-06T20:41:02.997Z,203.88
2023-05-06T20:43:30.827Z,329.52
2023-05-06T20:45:58.554Z,253.77
2023-05-06T20:48:27.765Z,202.15
2023-05-06T20:50:59.093Z,198.70
2023-05-06T20:53:27.272Z,191.82
2023-05-06T20:55:54.834Z,246.20
2023-05-06T20:58:22.272Z,240.73
2023-05-06T21:00:50.456Z,223.30
2023-05-06T21:03:20.118Z,210.38
2023-05-06T21:05:47.315Z,278.95
2023-05-06T21:08:15.470Z,295.13
2023-05-06T21:10:42.437Z,319.63
2023-05-06T21:13:10.006Z,284.48
2023-05-06T21:15:38.201Z,154.90
2023-05-06T21:18:05.715Z,110.05
2023-05-06T21:20:32.801Z,97.10
2023-05-06T21:23:00.362Z,129.98
2023-05-06T21:25:27.544Z,119.47
2023-05-06T21:27:55.772Z,77.32
2023-05-06T21:30:22.776Z,42.75
2023-05-06T21:32:51.293Z,19.65
2023-05-06T21:35:18.416Z,40.25
2023-05-06T21:37:45.914Z,74.32
2023-05-06T21:40:13.588Z,25.80
2023-05-06T21:42:41.134Z,55.65
2023-05-06T21:45:08.776Z,83.68
2023-05-06T21:47:36.446Z,80.82
2023-05-06T21:50:04.315Z,59.25
2023-05-06T21:52:32.659Z,77.30
2023-05-06T21:55:00.493Z,68.40
2023-05-06T21:57:27.823Z,85.90
2023-05-06T21:59:54.880Z,69.38
2023-05-06T22:02:22.414Z,46.47
2023-05-06T22:04:49.687Z,72.32
2023-05-06T22:07:17.341Z,53.85
2023-05-06T22:09:44.792Z,41.17
2023-05-06T22:12:12.851Z,24.58
2023-05-06T22:14:41.481Z,24.02
2023-05-06T22:17:10.579Z,22.80
2023-05-06T22:19:40.862Z,16.73
2023-05-06T22:22:08.468Z,20.02
2023-05-06T22:24:35.939Z,21.63
2023-05-06T22:27:03.291Z,26.88
2023-05-06T22:29:30.407Z,28.45
2023-05-06T22:31:59.768Z,25.63
2023-05-06T22:34:27.007Z,44.05
2023-05-06T22:36:54.300Z,32.70
2023-05-06T22:39:21.526Z,22.92
2023-05-06T22:41:50.757Z,17.80
2023-05-06T22:44:18.079Z,20.92
2023-05-06T22:46:45.636Z,69.32
2023-05-06T22:49:12.818Z,83.82
2023-05-06T22:51:41.303Z,19.83
2023-05-06T22:54:08.323Z,73.57
2023-05-06T22:56:35.635Z,31.63
2023-05-06T22:59:02.767Z,30.50
2023-05-06T23:01:32.101Z,37.65
2023-05-06T23:04:00.342Z,44.08
2023-05-06T23:06:27.991Z,39.78
2023-05-06T23:08:54.993Z,33.22
2023-05-06T23:11:22.470Z,39.17
2023-05-06T23:13:49.520Z,36.35
2023-05-06T23:16:16.851Z,40.95
2023-05-06T23:18:43.871Z,54.50
2023-05-06T23:21:12.635Z,35.30
2023-05-06T23:23:39.831Z,30.65
2023-05-06T23:26:07.076Z,78.07
2023-05-06T23:28:34.121Z,29.17
2023-05-06T23:31:01.647Z,22.98
2023-05-06T23:33:28.828Z,16.95
2023-05-06T23:35:56.089Z,21.50
2023-05-06T23:38:23.041Z,21.08
2023-05-06T23:40:50.870Z,15.23
2023-05-06T23:43:17.868Z,16.77
2023-05-06T23:45:45.229Z,26.75
2023-05-06T23:48:12.533Z,23.40
2023-05-06T23:50:41.104Z,27.60
2023-05-06T23:53:08.078Z,27.23
2023-05-06T23:55:35.833Z,25.52
2023-05-06T23:58:03.261Z,32.88
